sensor_id;sensor_type;location;lat;lon;timestamp;P1;durP1;ratioP1;P2;durP2;ratioP2
37905;SDS011;23739;51.448;6.674;2023-11-21T00:00:22;23.42;;;13.48;;
37905;SDS011;23739;51.448;6.674;2023-11-21T00:02:48;21.63;;;14.60;;
37905;SDS011;23739;51.448;6.674;2023-11-21T00:05:14;18.40;;;13.73;;
37905;SDS011;23739;51.448;6.674;2023-11-21T00:07:41;21.42;;;13.48;;
37905;SDS011;23739;51.448;6.674;2023-11-21T00:10:08;19.83;;;13.65;;
37905;SDS011;23739;51.448;6.674;2023-11-21T00:12:35;20.45;;;12.70;;
37905;SDS011;23739;51.448;6.674;2023-11-21T00:15:01;21.25;;;12.98;;
37905;SDS011;23739;51.448;6.674;2023-11-21T00:17:27;23.27;;;14.45;;
37905;SDS011;23739;51.448;6.674;2023-11-21T00:19:53;23.35;;;15.20;;
37905;SDS011;23739;51.448;6.674;2023-11-21T00:22:19;21.63;;;13.20;;
37905;SDS011;23739;51.448;6.674;2023-11-21T00:24:46;23.90;;;14.50;;
37905;SDS011;23739;51.448;6.674;2023-11-21T00:27:13;21.20;;;13.70;;
37905;SDS011;23739;51.448;6.674;2023-11-21T00:29:39;19.10;;;12.80;;
37905;SDS011;23739;51.448;6.674;2023-11-21T00:32:05;20.35;;;13.55;;
37905;SDS011;23739;51.448;6.674;2023-11-21T00:34:32;18.38;;;12.55;;
37905;SDS011;23739;51.448;6.674;2023-11-21T00:36:58;21.05;;;11.63;;
37905;SDS011;23739;51.448;6.674;2023-11-21T00:39:24;21.55;;;11.75;;
37905;SDS011;23739;51.448;6.674;2023-11-21T00:41:51;21.45;;;12.65;;
37905;SDS011;23739;51.448;6.674;2023-11-21T00:44:18;21.70;;;13.25;;
37905;SDS011;23739;51.448;6.674;2023-11-21T00:46:44;17.67;;;13.50;;
37905;SDS011;23739;51.448;6.674;2023-11-21T00:49:10;17.70;;;12.23;;
37905;SDS011;23739;51.448;6.674;2023-11-21T00:51:36;21.92;;;15.02;;
37905;SDS011;23739;51.448;6.674;2023-11-21T00:54:03;19.35;;;12.20;;
37905;SDS011;23739;51.448;6.674;2023-11-21T00:56:29;15.45;;;11.75;;
37905;SDS011;23739;51.448;6.674;2023-11-21T00:58:55;21.20;;;12.15;;
37905;SDS011;23739;51.448;6.674;2023-11-21T01:01:21;20.95;;;12.48;;
37905;SDS011;23739;51.448;6.674;2023-11-21T01:03:48;23.88;;;13.30;;
37905;SDS011;23739;51.448;6.674;2023-11-21T01:06:17;21.75;;;12.02;;
37905;SDS011;23739;51.448;6.674;2023-11-21T01:08:44;18.63;;;12.18;;
37905;SDS011;23739;51.448;6.674;2023-11-21T01:11:11;15.73;;;10.10;;
37905;SDS011;23739;51.448;6.674;2023-11-21T01:13:40;19.05;;;11.02;;
37905;SDS011;23739;51.448;6.674;2023-11-21T01:16:07;14.25;;;10.10;;
37905;SDS011;23739;51.448;6.674;2023-11-21T01:18:34;19.08;;;11.52;;
37905;SDS011;23739;51.448;6.674;2023-11-21T01:21:00;17.27;;;10.30;;
37905;SDS011;23739;51.448;6.674;2023-11-21T01:23:26;18.23;;;11.35;;
37905;SDS011;23739;51.448;6.674;2023-11-21T01:25:53;19.75;;;10.80;;
37905;SDS011;23739;51.448;6.674;2023-11-21T01:28:19;19.35;;;11.98;;
37905;SDS011;23739;51.448;6.674;2023-11-21T01:30:45;18.55;;;11.07;;
37905;SDS011;23739;51.448;6.674;2023-11-21T01:33:11;15.50;;;11.10;;
37905;SDS011;23739;51.448;6.674;2023-11-21T01:35:38;18.92;;;11.10;;
37905;SDS011;23739;51.448;6.674;2023-11-21T01:38:04;17.08;;;12.15;;
37905;SDS011;23739;51.448;6.674;2023-11-21T01:40:33;19.77;;;12.60;;
37905;SDS011;23739;51.448;6.674;2023-11-21T01:42:59;17.90;;;12.27;;
37905;SDS011;23739;51.448;6.674;2023-11-21T01:45:28;21.02;;;12.55;;
37905;SDS011;23739;51.448;6.674;2023-11-21T01:47:56;22.13;;;13.82;;
37905;SDS011;23739;51.448;6.674;2023-11-21T01:50:23;22.70;;;14.05;;
37905;SDS011;23739;51.448;6.674;2023-11-21T01:52:49;24.85;;;14.52;;
37905;SDS011;23739;51.448;6.674;2023-11-21T01:55:16;21.98;;;13.70;;
37905;SDS011;23739;51.448;6.674;2023-11-21T01:57:45;25.52;;;14.35;;
37905;SDS011;23739;51.448;6.674;2023-11-21T02:00:12;27.10;;;15.23;;
37905;SDS011;23739;51.448;6.674;2023-11-21T02:02:42;26.20;;;16.25;;
37905;SDS011;23739;51.448;6.674;2023-11-21T02:05:09;27.38;;;14.60;;
37905;SDS011;23739;51.448;6.674;2023-11-21T02:07:35;31.10;;;14.75;;
37905;SDS011;23739;51.448;6.674;2023-11-21T02:10:03;22.63;;;15.07;;
37905;SDS011;23739;51.448;6.674;2023-11-21T02:12:29;26.95;;;14.55;;
37905;SDS011;23739;51.448;6.674;2023-11-21T02:14:55;28.92;;;17.17;;
37905;SDS011;23739;51.448;6.674;2023-11-21T02:17:22;24.15;;;14.68;;
37905;SDS011;23739;51.448;6.674;2023-11-21T02:19:48;37.03;;;16.83;;
37905;SDS011;23739;51.448;6.674;2023-11-21T02:22:16;29.45;;;16.70;;
37905;SDS011;23739;51.448;6.674;2023-11-21T02:24:43;28.42;;;15.90;;
37905;SDS011;23739;51.448;6.674;2023-11-21T02:27:10;29.52;;;16.77;;
37905;SDS011;23739;51.448;6.674;2023-11-21T02:29:36;30.63;;;17.05;;
37905;SDS011;23739;51.448;6.674;2023-11-21T02:32:03;28.83;;;17.23;;
37905;SDS011;23739;51.448;6.674;2023-11-21T02:34:29;32.40;;;17.75;;
37905;SDS011;23739;51.448;6.674;2023-11-21T02:36:55;30.90;;;16.13;;
37905;SDS011;23739;51.448;6.674;2023-11-21T02:39:22;28.58;;;17.00;;
37905;SDS011;23739;51.448;6.674;2023-11-21T02:41:49;29.63;;;16.92;;
37905;SDS011;23739;51.448;6.674;2023-11-21T02:44:15;25.67;;;16.58;;
37905;SDS011;23739;51.448;6.674;2023-11-21T02:46:42;32.40;;;18.40;;
37905;SDS011;23739;51.448;6.674;2023-11-21T02:49:08;32.15;;;17.90;;
37905;SDS011;23739;51.448;6.674;2023-11-21T02:51:37;31.33;;;17.92;;
37905;SDS011;23739;51.448;6.674;2023-11-21T02:54:05;33.72;;;18.05;;
37905;SDS011;23739;51.448;6.674;2023-11-21T02:56:33;28.10;;;17.58;;
37905;SDS011;23739;51.448;6.674;2023-11-21T02:58:59;28.88;;;16.85;;
37905;SDS011;23739;51.448;6.674;2023-11-21T03:01:25;32.00;;;19.00;;
37905;SDS011;23739;51.448;6.674;2023-11-21T03:03:52;29.30;;;18.00;;
37905;SDS011;23739;51.448;6.674;2023-11-21T03:06:22;31.33;;;19.00;;
37905;SDS011;23739;51.448;6.674;2023-11-21T03:08:48;33.50;;;18.40;;
37905;SDS011;23739;51.448;6.674;2023-11-21T03:11:14;31.52;;;18.45;;
37905;SDS011;23739;51.448;6.674;2023-11-21T03:13:40;32.20;;;19.20;;
37905;SDS011;23739;51.448;6.674;2023-11-21T03:16:09;35.15;;;19.00;;
37905;SDS011;23739;51.448;6.674;2023-11-21T03:18:36;32.85;;;18.73;;
37905;SDS011;23739;51.448;6.674;2023-11-21T03:21:02;33.40;;;19.08;;
37905;SDS011;23739;51.448;6.674;2023-11-21T03:23:28;33.58;;;19.50;;
37905;SDS011;23739;51.448;6.674;2023-11-21T03:25:54;38.97;;;20.50;;
37905;SDS011;23739;51.448;6.674;2023-11-21T03:28:20;33.30;;;19.73;;
37905;SDS011;23739;51.448;6.674;2023-11-21T03:30:46;37.60;;;18.83;;
37905;SDS011;23739;51.448;6.674;2023-11-21T03:33:13;32.90;;;19.63;;
37905;SDS011;23739;51.448;6.674;2023-11-21T03:35:39;41.25;;;22.33;;
37905;SDS011;23739;51.448;6.674;2023-11-21T03:38:06;41.20;;;19.80;;
37905;SDS011;23739;51.448;6.674;2023-11-21T03:40:32;30.25;;;18.60;;
37905;SDS011;23739;51.448;6.674;2023-11-21T03:42:59;40.13;;;20.60;;
37905;SDS011;23739;51.448;6.674;2023-11-21T03:45:25;35.28;;;18.40;;
37905;SDS011;23739;51.448;6.674;2023-11-21T03:47:51;33.28;;;18.17;;
37905;SDS011;23739;51.448;6.674;2023-11-21T03:50:17;37.28;;;18.98;;
37905;SDS011;23739;51.448;6.674;2023-11-21T03:52:43;37.63;;;19.42;;
37905;SDS011;23739;51.448;6.674;2023-11-21T03:55:09;37.72;;;18.60;;
37905;SDS011;23739;51.448;6.674;2023-11-21T03:57:35;33.78;;;19.98;;
37905;SDS011;23739;51.448;6.674;2023-11-21T04:00:02;38.67;;;19.52;;
37905;SDS011;23739;51.448;6.674;2023-11-21T04:02:29;43.88;;;19.15;;
37905;SDS011;23739;51.448;6.674;2023-11-21T04:04:56;34.47;;;17.50;;
37905;SDS011;23739;51.448;6.674;2023-11-21T04:07:22;35.42;;;18.73;;
37905;SDS011;23739;51.448;6.674;2023-11-21T04:09:49;33.95;;;18.67;;
37905;SDS011;23739;51.448;6.674;2023-11-21T04:12:15;32.03;;;17.35;;
37905;SDS011;23739;51.448;6.674;2023-11-21T04:14:41;34.78;;;18.08;;
37905;SDS011;23739;51.448;6.674;2023-11-21T04:17:07;32.90;;;16.67;;
37905;SDS011;23739;51.448;6.674;2023-11-21T04:19:34;35.47;;;18.13;;
37905;SDS011;23739;51.448;6.674;2023-11-21T04:22:00;35.58;;;18.15;;
37905;SDS011;23739;51.448;6.674;2023-11-21T04:24:26;23.88;;;15.75;;
37905;SDS011;23739;51.448;6.674;2023-11-21T04:26:52;26.50;;;15.70;;
37905;SDS011;23739;51.448;6.674;2023-11-21T04:29:18;29.38;;;16.60;;
37905;SDS011;23739;51.448;6.674;2023-11-21T04:31:44;29.92;;;16.75;;
37905;SDS011;23739;51.448;6.674;2023-11-21T04:34:11;36.80;;;18.45;;
37905;SDS011;23739;51.448;6.674;2023-11-21T04:36:39;31.02;;;17.33;;
37905;SDS011;23739;51.448;6.674;2023-11-21T04:39:05;34.10;;;18.70;;
37905;SDS011;23739;51.448;6.674;2023-11-21T04:41:32;33.72;;;17.27;;
37905;SDS011;23739;51.448;6.674;2023-11-21T04:43:58;37.88;;;18.02;;
37905;SDS011;23739;51.448;6.674;2023-11-21T04:46:25;32.25;;;17.45;;
37905;SDS011;23739;51.448;6.674;2023-11-21T04:48:51;29.17;;;16.88;;
37905;SDS011;23739;51.448;6.674;2023-11-21T04:51:17;31.38;;;17.08;;
37905;SDS011;23739;51.448;6.674;2023-11-21T04:53:44;33.75;;;17.55;;
37905;SDS011;23739;51.448;6.674;2023-11-21T04:56:10;35.10;;;19.20;;
37905;SDS011;23739;51.448;6.674;2023-11-21T04:58:36;31.02;;;16.73;;
37905;SDS011;23739;51.448;6.674;2023-11-21T05:01:02;36.65;;;19.20;;
37905;SDS011;23739;51.448;6.674;2023-11-21T05:03:30;37.45;;;18.77;;
37905;SDS011;23739;51.448;6.674;2023-11-21T05:05:56;35.65;;;18.33;;
37905;SDS011;23739;51.448;6.674;2023-11-21T05:08:22;38.42;;;19.33;;
37905;SDS011;23739;51.448;6.674;2023-11-21T05:10:48;42.45;;;20.08;;
37905;SDS011;23739;51.448;6.674;2023-11-21T05:13:15;37.95;;;18.77;;
37905;SDS011;23739;51.448;6.674;2023-11-21T05:15:42;41.85;;;19.67;;
37905;SDS011;23739;51.448;6.674;2023-11-21T05:18:09;44.75;;;22.60;;
37905;SDS011;23739;51.448;6.674;2023-11-21T05:20:35;43.83;;;21.42;;
37905;SDS011;23739;51.448;6.674;2023-11-21T05:23:04;53.95;;;23.90;;
37905;SDS011;23739;51.448;6.674;2023-11-21T05:25:30;50.47;;;23.48;;
37905;SDS011;23739;51.448;6.674;2023-11-21T05:27:57;45.95;;;22.92;;
37905;SDS011;23739;51.448;6.674;2023-11-21T05:30:26;52.17;;;24.38;;
37905;SDS011;23739;51.448;6.674;2023-11-21T05:32:53;49.13;;;24.98;;
37905;SDS011;23739;51.448;6.674;2023-11-21T05:35:18;57.13;;;24.00;;
37905;SDS011;23739;51.448;6.674;2023-11-21T05:37:46;51.22;;;23.05;;
37905;SDS011;23739;51.448;6.674;2023-11-21T05:40:12;57.33;;;24.23;;
37905;SDS011;23739;51.448;6.674;2023-11-21T05:42:39;56.30;;;24.70;;
37905;SDS011;23739;51.448;6.674;2023-11-21T05:45:05;57.67;;;25.83;;
37905;SDS011;23739;51.448;6.674;2023-11-21T05:47:39;71.38;;;27.73;;
37905;SDS011;23739;51.448;6.674;2023-11-21T05:50:06;71.82;;;27.58;;
37905;SDS011;23739;51.448;6.674;2023-11-21T05:52:35;63.58;;;26.95;;
37905;SDS011;23739;51.448;6.674;2023-11-21T05:55:02;62.20;;;25.45;;
37905;SDS011;23739;51.448;6.674;2023-11-21T05:57:29;66.43;;;26.65;;
37905;SDS011;23739;51.448;6.674;2023-11-21T05:59:55;63.67;;;26.65;;
37905;SDS011;23739;51.448;6.674;2023-11-21T06:02:21;66.55;;;28.58;;
37905;SDS011;23739;51.448;6.674;2023-11-21T06:04:48;82.35;;;28.98;;
37905;SDS011;23739;51.448;6.674;2023-11-21T06:07:14;71.93;;;30.15;;
37905;SDS011;23739;51.448;6.674;2023-11-21T06:09:40;80.55;;;30.55;;
37905;SDS011;23739;51.448;6.674;2023-11-21T06:12:06;77.82;;;30.58;;
37905;SDS011;23739;51.448;6.674;2023-11-21T06:14:32;83.43;;;33.15;;
37905;SDS011;23739;51.448;6.674;2023-11-21T06:17:00;75.85;;;30.50;;
37905;SDS011;23739;51.448;6.674;2023-11-21T06:19:27;76.85;;;29.38;;
37905;SDS011;23739;51.448;6.674;2023-11-21T06:21:53;75.88;;;30.95;;
37905;SDS011;23739;51.448;6.674;2023-11-21T06:24:19;74.65;;;29.38;;
37905;SDS011;23739;51.448;6.674;2023-11-21T06:26:46;83.70;;;30.30;;
37905;SDS011;23739;51.448;6.674;2023-11-21T06:29:13;78.82;;;30.52;;
37905;SDS011;23739;51.448;6.674;2023-11-21T06:31:40;77.30;;;29.17;;
37905;SDS011;23739;51.448;6.674;2023-11-21T06:34:06;71.38;;;29.10;;
37905;SDS011;23739;51.448;6.674;2023-11-21T06:36:34;66.20;;;28.08;;
37905;SDS011;23739;51.448;6.674;2023-11-21T06:39:01;73.32;;;31.88;;
37905;SDS011;23739;51.448;6.674;2023-11-21T06:41:27;72.97;;;29.80;;
37905;SDS011;23739;51.448;6.674;2023-11-21T06:43:54;72.57;;;29.92;;
37905;SDS011;23739;51.448;6.674;2023-11-21T06:46:20;77.97;;;29.77;;
37905;SDS011;23739;51.448;6.674;2023-11-21T06:48:46;80.85;;;31.75;;
37905;SDS011;23739;51.448;6.674;2023-11-21T06:51:14;80.70;;;30.75;;
37905;SDS011;23739;51.448;6.674;2023-11-21T06:53:40;69.93;;;28.63;;
37905;SDS011;23739;51.448;6.674;2023-11-21T06:56:16;96.43;;;32.03;;
37905;SDS011;23739;51.448;6.674;2023-11-21T06:58:43;74.88;;;29.35;;
37905;SDS011;23739;51.448;6.674;2023-11-21T07:01:10;65.38;;;27.15;;
37905;SDS011;23739;51.448;6.674;2023-11-21T07:03:36;63.17;;;27.92;;
37905;SDS011;23739;51.448;6.674;2023-11-21T07:06:03;68.88;;;28.40;;
37905;SDS011;23739;51.448;6.674;2023-11-21T07:08:29;81.03;;;31.52;;
37905;SDS011;23739;51.448;6.674;2023-11-21T07:10:55;85.75;;;33.50;;
37905;SDS011;23739;51.448;6.674;2023-11-21T07:13:21;72.50;;;30.40;;
37905;SDS011;23739;51.448;6.674;2023-11-21T07:15:48;72.30;;;30.50;;
37905;SDS011;23739;51.448;6.674;2023-11-21T07:18:14;85.63;;;30.80;;
37905;SDS011;23739;51.448;6.674;2023-11-21T07:20:40;68.25;;;30.55;;
37905;SDS011;23739;51.448;6.674;2023-11-21T07:23:06;76.75;;;31.98;;
37905;SDS011;23739;51.448;6.674;2023-11-21T07:25:33;87.43;;;30.45;;
37905;SDS011;23739;51.448;6.674;2023-11-21T07:27:59;72.50;;;31.00;;
37905;SDS011;23739;51.448;6.674;2023-11-21T07:30:25;90.28;;;30.23;;
37905;SDS011;23739;51.448;6.674;2023-11-21T07:32:52;71.03;;;29.98;;
37905;SDS011;23739;51.448;6.674;2023-11-21T07:35:18;80.20;;;29.70;;
37905;SDS011;23739;51.448;6.674;2023-11-21T07:37:44;109.22;;;28.10;;
37905;SDS011;23739;51.448;6.674;2023-11-21T07:40:12;93.57;;;30.40;;
37905;SDS011;23739;51.448;6.674;2023-11-21T07:42:38;78.00;;;29.55;;
37905;SDS011;23739;51.448;6.674;2023-11-21T07:45:05;77.63;;;29.55;;
37905;SDS011;23739;51.448;6.674;2023-11-21T07:47:32;85.90;;;31.67;;
37905;SDS011;23739;51.448;6.674;2023-11-21T07:49:59;72.95;;;29.00;;
37905;SDS011;23739;51.448;6.674;2023-11-21T07:52:25;77.72;;;29.13;;
37905;SDS011;23739;51.448;6.674;2023-11-21T07:54:51;70.55;;;27.83;;
37905;SDS011;23739;51.448;6.674;2023-11-21T07:57:17;59.55;;;23.75;;
37905;SDS011;23739;51.448;6.674;2023-11-21T07:59:43;66.65;;;27.05;;
37905;SDS011;23739;51.448;6.674;2023-11-21T08:02:09;62.30;;;28.00;;
37905;SDS011;23739;51.448;6.674;2023-11-21T08:04:36;57.47;;;24.48;;
37905;SDS011;23739;51.448;6.674;2023-11-21T08:07:02;57.03;;;26.45;;
37905;SDS011;23739;51.448;6.674;2023-11-21T08:09:28;63.45;;;27.52;;
37905;SDS011;23739;51.448;6.674;2023-11-21T08:11:55;53.92;;;24.17;;
37905;SDS011;23739;51.448;6.674;2023-11-21T08:14:22;58.85;;;25.95;;
37905;SDS011;23739;51.448;6.674;2023-11-21T08:16:50;52.70;;;25.13;;
37905;SDS011;23739;51.448;6.674;2023-11-21T08:19:17;51.28;;;24.63;;
37905;SDS011;23739;51.448;6.674;2023-11-21T08:21:43;57.85;;;24.42;;
37905;SDS011;23739;51.448;6.674;2023-11-21T08:24:11;55.05;;;25.05;;
37905;SDS011;23739;51.448;6.674;2023-11-21T08:26:37;64.32;;;27.00;;
37905;SDS011;23739;51.448;6.674;2023-11-21T08:29:03;60.58;;;26.70;;
37905;SDS011;23739;51.448;6.674;2023-11-21T08:31:32;62.20;;;26.70;;
37905;SDS011;23739;51.448;6.674;2023-11-21T08:33:58;58.63;;;26.98;;
37905;SDS011;23739;51.448;6.674;2023-11-21T08:36:28;71.53;;;28.55;;
37905;SDS011;23739;51.448;6.674;2023-11-21T08:38:54;63.20;;;28.35;;
37905;SDS011;23739;51.448;6.674;2023-11-21T08:41:20;63.83;;;27.83;;
37905;SDS011;23739;51.448;6.674;2023-11-21T08:43:47;64.05;;;27.30;;
37905;SDS011;23739;51.448;6.674;2023-11-21T08:46:14;59.90;;;26.73;;
37905;SDS011;23739;51.448;6.674;2023-11-21T08:48:40;56.83;;;25.92;;
37905;SDS011;23739;51.448;6.674;2023-11-21T08:51:09;64.10;;;27.80;;
37905;SDS011;23739;51.448;6.674;2023-11-21T08:53:36;58.30;;;26.58;;
37905;SDS011;23739;51.448;6.674;2023-11-21T08:56:03;59.45;;;25.60;;
37905;SDS011;23739;51.448;6.674;2023-11-21T08:58:30;58.33;;;26.23;;
37905;SDS011;23739;51.448;6.674;2023-11-21T09:00:57;46.85;;;23.77;;
37905;SDS011;23739;51.448;6.674;2023-11-21T09:03:23;48.70;;;24.30;;
37905;SDS011;23739;51.448;6.674;2023-11-21T09:05:50;54.65;;;25.85;;
37905;SDS011;23739;51.448;6.674;2023-11-21T09:08:16;47.80;;;24.10;;
37905;SDS011;23739;51.448;6.674;2023-11-21T09:10:42;48.28;;;22.55;;
37905;SDS011;23739;51.448;6.674;2023-11-21T09:13:12;46.28;;;21.92;;
37905;SDS011;23739;51.448;6.674;2023-11-21T09:15:38;44.35;;;21.52;;
37905;SDS011;23739;51.448;6.674;2023-11-21T09:18:05;43.58;;;22.02;;
37905;SDS011;23739;51.448;6.674;2023-11-21T09:20:31;45.83;;;24.02;;
37905;SDS011;23739;51.448;6.674;2023-11-21T09:22:57;40.95;;;21.45;;
37905;SDS011;23739;51.448;6.674;2023-11-21T09:25:24;39.33;;;20.58;;
37905;SDS011;23739;51.448;6.674;2023-11-21T09:27:50;51.08;;;22.25;;
37905;SDS011;23739;51.448;6.674;2023-11-21T09:30:16;46.92;;;22.27;;
37905;SDS011;23739;51.448;6.674;2023-11-21T09:32:42;45.50;;;24.25;;
37905;SDS011;23739;51.448;6.674;2023-11-21T09:35:10;52.60;;;24.98;;
37905;SDS011;23739;51.448;6.674;2023-11-21T09:37:38;47.63;;;23.52;;
37905;SDS011;23739;51.448;6.674;2023-11-21T09:40:05;53.80;;;25.48;;
37905;SDS011;23739;51.448;6.674;2023-11-21T09:42:38;55.45;;;26.48;;
37905;SDS011;23739;51.448;6.674;2023-11-21T09:45:08;51.90;;;24.88;;
37905;SDS011;23739;51.448;6.674;2023-11-21T09:47:39;56.42;;;25.80;;
37905;SDS011;23739;51.448;6.674;2023-11-21T09:50:05;46.17;;;25.05;;
37905;SDS011;23739;51.448;6.674;2023-11-21T09:52:38;42.40;;;21.90;;
37905;SDS011;23739;51.448;6.674;2023-11-21T09:55:07;45.13;;;22.42;;
37905;SDS011;23739;51.448;6.674;2023-11-21T09:57:33;50.35;;;23.60;;
37905;SDS011;23739;51.448;6.674;2023-11-21T10:00:00;47.95;;;25.50;;
37905;SDS011;23739;51.448;6.674;2023-11-21T10:02:30;41.67;;;22.27;;
37905;SDS011;23739;51.448;6.674;2023-11-21T10:05:01;38.70;;;22.00;;
37905;SDS011;23739;51.448;6.674;2023-11-21T10:07:28;46.03;;;22.70;;
37905;SDS011;23739;51.448;6.674;2023-11-21T10:09:54;43.33;;;22.00;;
37905;SDS011;23739;51.448;6.674;2023-11-21T10:12:20;46.20;;;24.08;;
37905;SDS011;23739;51.448;6.674;2023-11-21T10:14:48;43.17;;;22.38;;
37905;SDS011;23739;51.448;6.674;2023-11-21T10:17:14;42.83;;;23.13;;
37905;SDS011;23739;51.448;6.674;2023-11-21T10:19:45;46.45;;;23.45;;
37905;SDS011;23739;51.448;6.674;2023-11-21T10:22:12;43.72;;;24.10;;
37905;SDS011;23739;51.448;6.674;2023-11-21T10:24:40;44.70;;;22.33;;
37905;SDS011;23739;51.448;6.674;2023-11-21T10:27:07;38.92;;;21.60;;
37905;SDS011;23739;51.448;6.674;2023-11-21T10:29:33;38.78;;;23.55;;
37905;SDS011;23739;51.448;6.674;2023-11-21T10:32:01;45.70;;;23.08;;
37905;SDS011;23739;51.448;6.674;2023-11-21T10:34:27;39.53;;;22.48;;
37905;SDS011;23739;51.448;6.674;2023-11-21T10:36:54;46.00;;;22.50;;
37905;SDS011;23739;51.448;6.674;2023-11-21T10:39:23;41.05;;;22.30;;
37905;SDS011;23739;51.448;6.674;2023-11-21T10:41:52;53.95;;;27.27;;
37905;SDS011;23739;51.448;6.674;2023-11-21T10:44:20;50.00;;;27.30;;
37905;SDS011;23739;51.448;6.674;2023-11-21T10:46:50;46.75;;;26.13;;
37905;SDS011;23739;51.448;6.674;2023-11-21T10:49:19;50.60;;;29.58;;
37905;SDS011;23739;51.448;6.674;2023-11-21T10:51:46;53.28;;;27.42;;
37905;SDS011;23739;51.448;6.674;2023-11-21T10:54:17;56.33;;;30.35;;
37905;SDS011;23739;51.448;6.674;2023-11-21T10:56:43;53.55;;;28.42;;
37905;SDS011;23739;51.448;6.674;2023-11-21T10:59:09;57.17;;;31.30;;
37905;SDS011;23739;51.448;6.674;2023-11-21T11:01:44;56.25;;;29.15;;
37905;SDS011;23739;51.448;6.674;2023-11-21T11:04:11;64.30;;;32.67;;
37905;SDS011;23739;51.448;6.674;2023-11-21T11:06:44;60.10;;;29.67;;
37905;SDS011;23739;51.448;6.674;2023-11-21T11:09:12;56.05;;;30.98;;
37905;SDS011;23739;51.448;6.674;2023-11-21T11:11:42;55.10;;;29.40;;
37905;SDS011;23739;51.448;6.674;2023-11-21T11:14:12;61.38;;;33.30;;
37905;SDS011;23739;51.448;6.674;2023-11-21T11:16:39;55.88;;;30.65;;
37905;SDS011;23739;51.448;6.674;2023-11-21T11:19:08;55.50;;;30.95;;
37905;SDS011;23739;51.448;6.674;2023-11-21T11:26:50;59.33;;;30.85;;
37905;SDS011;23739;51.448;6.674;2023-11-21T11:32:17;51.17;;;26.00;;
37905;SDS011;23739;51.448;6.674;2023-11-21T11:34:48;44.85;;;24.75;;
37905;SDS011;23739;51.448;6.674;2023-11-21T11:37:18;42.22;;;23.88;;
37905;SDS011;23739;51.448;6.674;2023-11-21T11:39:44;43.50;;;24.73;;
37905;SDS011;23739;51.448;6.674;2023-11-21T11:42:14;41.05;;;24.33;;
37905;SDS011;23739;51.448;6.674;2023-11-21T11:47:24;47.88;;;26.48;;
37905;SDS011;23739;51.448;6.674;2023-11-21T11:50:03;52.08;;;24.88;;
37905;SDS011;23739;51.448;6.674;2023-11-21T11:52:54;46.60;;;24.95;;
37905;SDS011;23739;51.448;6.674;2023-11-21T11:55:20;56.67;;;26.55;;
37905;SDS011;23739;51.448;6.674;2023-11-21T11:57:47;50.78;;;26.00;;
37905;SDS011;23739;51.448;6.674;2023-11-21T12:00:16;49.90;;;26.83;;
37905;SDS011;23739;51.448;6.674;2023-11-21T12:02:51;44.35;;;25.00;;
37905;SDS011;23739;51.448;6.674;2023-11-21T12:05:18;44.22;;;24.38;;
37905;SDS011;23739;51.448;6.674;2023-11-21T12:07:53;41.63;;;25.10;;
37905;SDS011;23739;51.448;6.674;2023-11-21T12:10:21;49.58;;;27.02;;
37905;SDS011;23739;51.448;6.674;2023-11-21T12:12:50;52.38;;;26.20;;
37905;SDS011;23739;51.448;6.674;2023-11-21T12:15:17;51.72;;;26.50;;
37905;SDS011;23739;51.448;6.674;2023-11-21T12:17:44;54.15;;;26.20;;
37905;SDS011;23739;51.448;6.674;2023-11-21T12:20:11;52.78;;;28.35;;
37905;SDS011;23739;51.448;6.674;2023-11-21T12:22:43;45.80;;;25.50;;
37905;SDS011;23739;51.448;6.674;2023-11-21T12:27:42;56.03;;;26.73;;
37905;SDS011;23739;51.448;6.674;2023-11-21T12:30:09;51.00;;;25.92;;
37905;SDS011;23739;51.448;6.674;2023-11-21T12:32:39;48.03;;;25.70;;
37905;SDS011;23739;51.448;6.674;2023-11-21T12:35:06;46.33;;;25.10;;
37905;SDS011;23739;51.448;6.674;2023-11-21T12:37:32;44.60;;;23.38;;
37905;SDS011;23739;51.448;6.674;2023-11-21T12:39:59;46.33;;;25.13;;
37905;SDS011;23739;51.448;6.674;2023-11-21T12:42:25;41.60;;;21.95;;
37905;SDS011;23739;51.448;6.674;2023-11-21T12:47:43;38.03;;;21.67;;
37905;SDS011;23739;51.448;6.674;2023-11-21T12:50:10;32.47;;;18.00;;
37905;SDS011;23739;51.448;6.674;2023-11-21T12:52:47;33.28;;;18.08;;
37905;SDS011;23739;51.448;6.674;2023-11-21T12:55:13;30.38;;;17.52;;
37905;SDS011;23739;51.448;6.674;2023-11-21T12:57:47;32.47;;;18.73;;
37905;SDS011;23739;51.448;6.674;2023-11-21T13:00:15;35.72;;;19.05;;
37905;SDS011;23739;51.448;6.674;2023-11-21T13:02:53;37.00;;;19.20;;
37905;SDS011;23739;51.448;6.674;2023-11-21T13:05:23;37.88;;;19.83;;
37905;SDS011;23739;51.448;6.674;2023-11-21T13:07:49;33.47;;;18.75;;
37905;SDS011;23739;51.448;6.674;2023-11-21T13:10:21;36.20;;;18.90;;
37905;SDS011;23739;51.448;6.674;2023-11-21T13:12:51;37.45;;;17.77;;
37905;SDS011;23739;51.448;6.674;2023-11-21T13:15:20;31.65;;;17.10;;
37905;SDS011;23739;51.448;6.674;2023-11-21T13:17:46;36.67;;;16.67;;
37905;SDS011;23739;51.448;6.674;2023-11-21T13:20:13;35.38;;;17.48;;
37905;SDS011;23739;51.448;6.674;2023-11-21T13:25:22;26.67;;;14.27;;
37905;SDS011;23739;51.448;6.674;2023-11-21T13:27:49;24.77;;;14.18;;
37905;SDS011;23739;51.448;6.674;2023-11-21T13:30:19;27.35;;;13.73;;
37905;SDS011;23739;51.448;6.674;2023-11-21T13:32:51;22.73;;;13.00;;
37905;SDS011;23739;51.448;6.674;2023-11-21T13:35:18;21.02;;;11.63;;
37905;SDS011;23739;51.448;6.674;2023-11-21T13:38:03;22.15;;;13.00;;
37905;SDS011;23739;51.448;6.674;2023-11-21T13:40:32;22.13;;;12.45;;
37905;SDS011;23739;51.448;6.674;2023-11-21T13:43:05;17.30;;;11.68;;
37905;SDS011;23739;51.448;6.674;2023-11-21T13:45:37;18.38;;;10.52;;
37905;SDS011;23739;51.448;6.674;2023-11-21T13:48:05;21.63;;;13.48;;
37905;SDS011;23739;51.448;6.674;2023-11-21T13:50:35;18.75;;;11.98;;
37905;SDS011;23739;51.448;6.674;2023-11-21T13:53:01;16.63;;;11.20;;
37905;SDS011;23739;51.448;6.674;2023-11-21T13:55:42;22.23;;;13.00;;
37905;SDS011;23739;51.448;6.674;2023-11-21T13:58:08;20.80;;;12.88;;
37905;SDS011;23739;51.448;6.674;2023-11-21T14:00:37;22.45;;;13.38;;
37905;SDS011;23739;51.448;6.674;2023-11-21T14:03:21;24.75;;;13.27;;
37905;SDS011;23739;51.448;6.674;2023-11-21T14:06:06;23.33;;;14.02;;
37905;SDS011;23739;51.448;6.674;2023-11-21T14:08:40;23.88;;;14.10;;
37905;SDS011;23739;51.448;6.674;2023-11-21T14:11:07;33.13;;;20.88;;
37905;SDS011;23739;51.448;6.674;2023-11-21T14:13:36;28.80;;;19.38;;
37905;SDS011;23739;51.448;6.674;2023-11-21T14:16:03;28.10;;;16.27;;
37905;SDS011;23739;51.448;6.674;2023-11-21T14:18:31;23.65;;;15.10;;
37905;SDS011;23739;51.448;6.674;2023-11-21T14:21:15;23.95;;;14.02;;
37905;SDS011;23739;51.448;6.674;2023-11-21T14:23:42;26.45;;;16.05;;
37905;SDS011;23739;51.448;6.674;2023-11-21T14:26:10;31.13;;;17.80;;
37905;SDS011;23739;51.448;6.674;2023-11-21T14:28:39;27.63;;;16.92;;
37905;SDS011;23739;51.448;6.674;2023-11-21T14:31:07;26.23;;;15.27;;
37905;SDS011;23739;51.448;6.674;2023-11-21T14:33:38;23.08;;;16.10;;
37905;SDS011;23739;51.448;6.674;2023-11-21T14:36:04;30.95;;;17.30;;
37905;SDS011;23739;51.448;6.674;2023-11-21T14:38:33;26.50;;;15.45;;
37905;SDS011;23739;51.448;6.674;2023-11-21T14:40:59;26.17;;;15.77;;